Time;durP1;ratioP1;P1;durP2;ratioP2;P2;SDS_P1;SDS_P2;PMS_P1;PMS_P2;Temp;Humidity;BMP_temperature;BMP_pressure;BME280_temperature;BME280_humidity;BME280_pressure;Samples;Min_cycle;Max_cycle;Signal;HPM_P1;HPM_P2
2022/09/12 00:01:13;;;;;;;4.45;4.07;;;17.20;99.90;;;;;;7394192;19;20145;-77
2022/09/12 00:03:40;;;;;;;6.07;4.63;;;17.40;99.90;;;;;;7392050;19;20627;-77
2022/09/12 00:06:13;;;;;;;4.65;4.03;;;17.60;99.90;;;;;;7394057;19;20627;-76
2022/09/12 00:08:39;;;;;;;5.97;4.18;;;17.50;99.90;;;;;;7391988;19;20143;-76
2022/09/12 00:11:08;;;;;;;4.57;3.83;;;17.50;99.90;;;;;;7392305;19;20198;-76
2022/09/12 00:13:34;;;;;;;4.15;3.75;;;17.40;99.90;;;;;;7393676;19;20145;-76
2022/09/12 00:16:00;;;;;;;4.13;3.67;;;17.60;99.90;;;;;;7394718;19;20167;-76
2022/09/12 00:18:26;;;;;;;5.13;4.05;;;17.40;99.90;;;;;;7391636;19;20150;-75
2022/09/12 00:20:52;;;;;;;5.05;4.20;;;17.50;99.90;;;;;;7394369;19;20237;-76
2022/09/12 00:23:18;;;;;;;3.90;3.50;;;17.60;99.90;;;;;;7391876;19;20603;-76
2022/09/12 00:25:45;;;;;;;5.45;4.65;;;17.40;99.90;;;;;;7389980;19;20914;-76
2022/09/12 00:28:12;;;;;;;4.70;3.85;;;16.90;99.90;;;;;;7391656;19;20283;-76
2022/09/12 00:30:46;;;;;;;6.97;4.35;;;16.90;99.90;;;;;;7392770;19;20599;-77
2022/09/12 00:33:14;;;;;;;5.18;4.50;;;17.00;99.90;;;;;;7390348;19;20559;-77
2022/09/12 00:35:48;;;;;;;5.05;4.07;;;16.80;99.90;;;;;;7387644;19;20150;-76
2022/09/12 00:38:15;;;;;;;5.25;4.25;;;17.00;99.90;;;;;;7393576;19;20654;-77
2022/09/12 00:40:43;;;;;;;4.47;3.92;;;17.10;99.90;;;;;;7392098;19;20138;-76
2022/09/12 00:43:42;;;;;;;5.93;4.30;;;16.70;99.90;;;;;;7390827;19;20135;-76
2022/09/12 00:46:23;;;;;;;10.50;4.43;;;16.60;99.90;;;;;;7393262;19;20139;-77
2022/09/12 00:48:54;;;;;;;4.63;4.10;;;16.50;99.90;;;;;;7392432;19;20207;-76
2022/09/12 00:51:21;;;;;;;4.32;3.88;;;16.40;99.90;;;;;;7393328;19;20480;-76
2022/09/12 00:53:49;;;;;;;5.68;4.18;;;16.20;99.90;;;;;;7389964;19;20130;-77
2022/09/12 00:56:17;;;;;;;4.15;3.75;;;16.20;99.90;;;;;;7393564;19;20130;-76
2022/09/12 00:58:51;;;;;;;5.05;4.15;;;16.00;99.90;;;;;;7393597;19;20137;-76
2022/09/12 01:01:17;;;;;;;4.28;3.88;;;15.90;99.90;;;;;;7386743;19;20176;-75
2022/09/12 01:03:43;;;;;;;5.18;4.63;;;16.40;99.90;;;;;;7389531;19;20135;-76
2022/09/12 01:06:21;;;;;;;5.35;4.53;;;16.80;99.90;;;;;;7393166;19;20209;-77
2022/09/12 01:08:48;;;;;;;5.57;4.22;;;17.00;99.90;;;;;;7389272;19;20869;-77
2022/09/12 01:11:15;;;;;;;5.93;5.07;;;17.10;99.90;;;;;;7390849;19;20601;-76
2022/09/12 01:13:43;;;;;;;7.38;4.88;;;16.90;99.90;;;;;;7391908;19;20583;-76
2022/09/12 01:16:09;;;;;;;6.55;4.63;;;16.40;99.90;;;;;;7391437;19;20131;-77
2022/09/12 01:19:04;;;;;;;7.70;5.10;;;16.30;99.90;;;;;;7390267;19;20139;-76
2022/09/12 01:21:36;;;;;;;5.38;4.88;;;16.60;99.90;;;;;;7391888;19;20541;-77
2022/09/12 01:24:05;;;;;;;4.90;4.32;;;16.80;99.90;;;;;;7390473;19;20205;-76
2022/09/12 01:26:54;;;;;;;6.25;4.45;;;17.00;99.90;;;;;;7391864;19;20520;-77
2022/09/12 01:29:52;;;;;;;4.90;4.30;;;17.00;99.90;;;;;;7389023;19;20165;-77
2022/09/12 01:32:42;;;;;;;4.45;4.05;;;16.80;99.90;;;;;;7389858;19;20165;-76
2022/09/12 01:35:31;;;;;;;4.47;4.05;;;16.50;99.90;;;;;;7391691;19;20467;-77
2022/09/12 01:38:18;;;;;;;7.00;3.75;;;16.30;99.90;;;;;;7392076;19;20146;-77
2022/09/12 01:41:22;;;;;;;6.22;4.28;;;16.30;99.90;;;;;;7390271;19;20146;-77
2022/09/12 01:43:54;;;;;;;5.55;4.03;;;16.10;99.90;;;;;;7387249;19;20155;-76
2022/09/12 01:47:01;;;;;;;5.63;4.60;;;15.80;99.90;;;;;;7391123;19;20145;-76
2022/09/12 01:49:51;;;;;;;4.65;3.75;;;15.80;99.90;;;;;;7387496;19;20163;-77
2022/09/12 01:52:26;;;;;;;5.53;4.78;;;16.00;99.90;;;;;;7389773;19;20166;-76
2022/09/12 01:54:59;;;;;;;4.85;4.35;;;16.40;99.90;;;;;;7390175;19;20213;-76
2022/09/12 01:57:59;;;;;;;6.68;4.50;;;16.70;99.90;;;;;;7390029;19;20143;-76
2022/09/12 02:00:25;;;;;;;4.97;4.30;;;16.80;99.90;;;;;;7386263;19;20510;-76
2022/09/12 02:03:01;;;;;;;5.40;4.47;;;16.90;99.90;;;;;;7390266;19;20186;-76
2022/09/12 02:05:32;;;;;;;6.28;4.70;;;17.00;99.90;;;;;;7389401;19;20502;-76
2022/09/12 02:08:42;;;;;;;6.32;4.68;;;16.50;99.90;;;;;;7391496;19;20499;-77
2022/09/12 02:11:10;;;;;;;6.68;4.40;;;16.20;99.90;;;;;;7386536;19;20152;-76
2022/09/12 02:14:03;;;;;;;6.40;4.65;;;16.40;99.90;;;;;;7386935;19;20145;-75
2022/09/12 02:16:43;;;;;;;7.35;4.80;;;16.30;99.90;;;;;;7389525;19;20148;-76
2022/09/12 02:19:16;;;;;;;5.10;4.60;;;15.90;99.90;;;;;;7388061;19;20488;-76
2022/09/12 02:21:49;;;;;;;5.22;4.72;;;15.80;99.90;;;;;;7390401;19;20142;-76
2022/09/12 02:24:16;;;;;;;5.25;4.15;;;15.90;99.90;;;;;;7390514;19;20196;-76
2022/09/12 02:26:53;;;;;;;5.20;4.35;;;16.10;99.90;;;;;;7390241;19;20138;-76
2022/09/12 02:29:19;;;;;;;5.68;5.00;;;16.30;99.90;;;;;;7390908;19;20158;-75
2022/09/12 02:31:48;;;;;;;5.93;4.68;;;16.30;99.90;;;;;;7388328;19;20146;-76
2022/09/12 02:34:33;;;;;;;6.72;5.03;;;16.50;99.90;;;;;;7389084;19;20146;-76
2022/09/12 02:37:06;;;;;;;7.43;5.45;;;16.60;99.90;;;;;;7388882;19;20237;-76
2022/09/12 02:39:33;;;;;;;4.82;4.32;;;16.70;99.90;;;;;;7387785;19;20147;-78
2022/09/12 02:42:01;;;;;;;7.50;5.68;;;16.70;99.90;;;;;;7389726;19;20134;-77
2022/09/12 02:44:31;;;;;;;6.85;5.43;;;16.70;99.90;;;;;;7390200;19;20146;-78
2022/09/12 02:47:37;;;;;;;6.78;5.50;;;16.70;99.90;;;;;;7390563;19;20141;-78
2022/09/12 02:50:04;;;;;;;8.15;5.88;;;16.60;99.90;;;;;;7390007;19;20134;-77
2022/09/12 02:52:31;;;;;;;7.03;5.47;;;16.70;99.90;;;;;;7389670;19;20149;-78
2022/09/12 02:54:57;;;;;;;8.65;5.68;;;16.50;99.90;;;;;;7389543;19;20176;-78
2022/09/12 02:57:23;;;;;;;6.55;5.15;;;16.50;99.90;;;;;;7389916;19;20146;-77
2022/09/12 02:59:52;;;;;;;8.10;5.35;;;16.60;99.90;;;;;;7382794;19;20892;-77
2022/09/12 03:02:44;;;;;;;7.15;5.60;;;16.50;99.90;;;;;;7387693;19;20130;-77
2022/09/12 03:05:21;;;;;;;6.35;5.55;;;16.70;99.90;;;;;;7388137;19;20149;-77
2022/09/12 03:07:56;;;;;;;6.15;5.20;;;16.10;99.90;;;;;;7384854;19;20145;-77
2022/09/12 03:10:24;;;;;;;6.60;4.78;;;15.80;99.90;;;;;;7389174;19;20130;-77
2022/09/12 03:13:30;;;;;;;6.32;5.32;;;16.00;99.90;;;;;;7396707;19;20252;-78
2022/09/12 03:16:14;;;;;;;7.60;5.13;;;16.20;99.90;;;;;;7393536;19;20159;-78
2022/09/12 03:18:52;;;;;;;6.75;5.47;;;16.20;99.90;;;;;;7394212;19;20206;-77
2022/09/12 03:21:24;;;;;;;7.00;5.40;;;16.30;99.90;;;;;;7395098;19;20177;-78
2022/09/12 03:24:42;;;;;;;7.65;5.55;;;16.30;99.90;;;;;;7393821;19;20126;-78
2022/09/12 03:27:28;;;;;;;8.95;5.93;;;16.30;99.90;;;;;;7392712;19;20153;-78
2022/09/12 03:29:55;;;;;;;7.25;5.80;;;16.20;99.90;;;;;;7396265;19;20896;-78
2022/09/12 03:32:43;;;;;;;5.95;5.03;;;16.10;99.90;;;;;;7397398;19;20172;-78
2022/09/12 03:35:10;;;;;;;6.00;4.90;;;16.10;99.90;;;;;;7393791;19;20139;-78
2022/09/12 03:37:36;;;;;;;5.97;5.00;;;16.10;99.90;;;;;;7393132;19;20135;-78
2022/09/12 03:40:03;;;;;;;7.15;5.32;;;16.20;99.90;;;;;;7392888;19;20134;-79
2022/09/12 03:42:29;;;;;;;7.38;5.43;;;15.80;99.90;;;;;;7391939;19;20135;-78
2022/09/12 03:44:54;;;;;;;5.07;4.45;;;16.00;99.90;;;;;;7393197;19;20159;-78
2022/09/12 03:47:20;;;;;;;6.28;5.47;;;16.20;99.90;;;;;;7395304;19;20146;-77
2022/09/12 03:49:46;;;;;;;6.30;5.10;;;16.30;99.90;;;;;;7395031;19;20134;-78
2022/09/12 03:52:11;;;;;;;8.05;5.93;;;16.10;99.90;;;;;;7395048;19;20131;-79
2022/09/12 03:54:38;;;;;;;6.15;4.50;;;15.70;99.90;;;;;;7394863;19;20130;-77
2022/09/12 03:57:04;;;;;;;7.03;5.53;;;15.90;99.90;;;;;;7392752;19;20131;-78
2022/09/12 03:59:30;;;;;;;7.30;5.43;;;16.10;99.90;;;;;;7391977;19;20153;-78
2022/09/12 04:01:56;;;;;;;6.30;5.10;;;15.90;99.90;;;;;;7391072;19;20145;-78
2022/09/12 04:04:22;;;;;;;6.32;5.28;;;15.70;99.90;;;;;;7393157;19;20590;-77
2022/09/12 04:06:48;;;;;;;6.70;5.40;;;15.30;99.90;;;;;;7394317;19;20135;-77
2022/09/12 04:09:14;;;;;;;6.15;5.50;;;15.10;99.90;;;;;;7392614;19;20135;-79
2022/09/12 04:11:39;;;;;;;5.93;4.90;;;15.10;99.90;;;;;;7392058;19;20164;-78
2022/09/12 04:14:05;;;;;;;5.47;4.65;;;15.10;99.90;;;;;;7392514;19;20130;-78
2022/09/12 04:16:31;;;;;;;5.75;5.15;;;15.20;99.90;;;;;;7394173;19;20150;-78
2022/09/12 04:18:57;;;;;;;5.82;5.03;;;15.40;99.90;;;;;;7392163;19;20195;-77
2022/09/12 04:21:23;;;;;;;6.60;5.20;;;15.60;99.90;;;;;;7392066;19;20153;-77
2022/09/12 04:23:50;;;;;;;11.07;5.72;;;15.50;99.90;;;;;;7389819;19;20174;-78
2022/09/12 04:26:19;;;;;;;6.95;5.70;;;15.40;99.90;;;;;;7392521;19;20153;-78
2022/09/12 04:28:45;;;;;;;7.50;5.97;;;15.30;99.90;;;;;;7391467;19;20633;-77
2022/09/12 04:31:21;;;;;;;7.72;5.90;;;15.40;99.90;;;;;;7393804;19;20147;-77
2022/09/12 04:33:56;;;;;;;6.28;5.47;;;15.30;99.90;;;;;;7394201;19;20130;-78
2022/09/12 04:36:21;;;;;;;5.95;5.35;;;15.70;99.90;;;;;;7393996;19;20213;-77
2022/09/12 04:38:48;;;;;;;6.93;5.60;;;15.30;99.90;;;;;;7393572;19;20608;-77
2022/09/12 04:41:17;;;;;;;6.40;5.47;;;15.00;99.90;;;;;;7392435;19;20238;-78
2022/09/12 04:43:47;;;;;;;6.65;5.28;;;14.90;99.90;;;;;;7393111;19;20214;-78
2022/09/12 04:46:15;;;;;;;6.13;5.22;;;14.90;99.90;;;;;;7392387;19;20238;-79
2022/09/12 04:48:42;;;;;;;8.02;5.22;;;15.30;99.90;;;;;;7390965;19;20611;-78
2022/09/12 04:51:26;;;;;;;7.88;5.32;;;15.30;99.90;;;;;;7393191;19;20134;-79
2022/09/12 04:53:55;;;;;;;5.70;5.10;;;15.20;99.90;;;;;;7392312;19;20152;-79
2022/09/12 04:56:21;;;;;;;8.25;5.75;;;15.60;99.90;;;;;;7391892;19;20449;-79
2022/09/12 04:58:47;;;;;;;5.55;5.05;;;15.80;99.90;;;;;;7391679;19;20134;-77
2022/09/12 05:01:16;;;;;;;6.82;5.05;;;15.80;99.90;;;;;;7390297;19;20156;-78
2022/09/12 05:03:43;;;;;;;6.32;5.47;;;16.10;99.90;;;;;;7388846;19;20142;-78
2022/09/12 05:06:14;;;;;;;7.90;5.70;;;16.00;99.90;;;;;;7392476;19;20751;-78
2022/09/12 05:08:41;;;;;;;6.88;5.30;;;15.80;99.90;;;;;;7391923;19;20145;-79
2022/09/12 05:11:10;;;;;;;5.28;4.60;;;15.70;99.90;;;;;;7391377;19;20138;-79
2022/09/12 05:13:36;;;;;;;7.63;5.32;;;15.60;99.90;;;;;;7391691;19;20221;-79
2022/09/12 05:16:04;;;;;;;6.47;4.95;;;15.80;99.90;;;;;;7391604;19;20138;-79
2022/09/12 05:18:34;;;;;;;6.53;5.55;;;15.60;99.90;;;;;;7388875;19;20169;-79
2022/09/12 05:21:02;;;;;;;7.20;5.35;;;15.90;99.90;;;;;;7393157;19;20159;-79
2022/09/12 05:23:29;;;;;;;8.63;5.43;;;15.90;99.90;;;;;;7390514;19;20158;-78
2022/09/12 05:25:57;;;;;;;11.32;5.47;;;15.80;99.90;;;;;;7390543;19;20898;-78
2022/09/12 05:28:27;;;;;;;5.68;5.05;;;16.10;99.90;;;;;;7389438;19;20170;-78
2022/09/12 05:31:04;;;;;;;6.07;5.32;;;15.70;99.90;;;;;;7388730;19;20222;-78
2022/09/12 05:33:33;;;;;;;8.68;5.72;;;15.40;99.90;;;;;;7389801;19;20632;-77
2022/09/12 05:36:00;;;;;;;8.10;5.40;;;15.30;99.90;;;;;;7389354;19;20167;-77
2022/09/12 05:38:27;;;;;;;8.90;5.75;;;15.40;99.90;;;;;;7387935;19;20147;-78
2022/09/12 05:41:05;;;;;;;6.90;5.35;;;15.60;99.90;;;;;;7391707;19;20142;-77
2022/09/12 05:43:32;;;;;;;7.43;5.47;;;15.90;99.90;;;;;;7386950;19;20131;-77
2022/09/12 05:46:09;;;;;;;8.70;5.93;;;16.00;99.90;;;;;;7388048;19;20154;-77
2022/09/12 05:48:36;;;;;;;8.93;6.25;;;16.10;99.90;;;;;;7387026;19;20149;-77
2022/09/12 05:51:29;;;;;;;10.07;5.90;;;16.10;99.90;;;;;;7388654;19;20840;-82
2022/09/12 05:53:57;;;;;;;8.30;6.78;;;16.20;99.90;;;;;;7387404;19;20162;-82
2022/09/12 05:56:28;;;;;;;7.93;6.70;;;16.20;99.90;;;;;;7388078;19;20146;-80
2022/09/12 05:59:00;;;;;;;9.77;5.68;;;15.70;99.90;;;;;;7389866;19;20139;-80
2022/09/12 06:01:27;;;;;;;7.40;5.25;;;15.80;99.90;;;;;;7389215;19;20138;-80
2022/09/12 06:03:55;;;;;;;6.90;5.75;;;15.80;99.90;;;;;;7389754;19;20142;-78
2022/09/12 06:06:23;;;;;;;9.30;6.25;;;16.00;99.90;;;;;;7391333;19;20151;-82
2022/09/12 06:08:51;;;;;;;10.18;5.60;;;16.10;99.90;;;;;;7389338;19;20150;-82
2022/09/12 06:11:20;;;;;;;8.20;6.40;;;16.10;99.90;;;;;;7392119;19;20153;-82
2022/09/12 06:13:46;;;;;;;8.30;5.95;;;16.20;99.90;;;;;;7388901;19;20142;-80
2022/09/12 06:16:17;;;;;;;8.52;6.50;;;15.70;99.90;;;;;;7387430;19;20611;-81
2022/09/12 06:19:14;;;;;;;8.30;6.18;;;15.70;99.90;;;;;;7389442;19;20146;-81
2022/09/12 06:21:40;;;;;;;10.00;5.55;;;15.30;99.90;;;;;;7387562;19;20150;-82
2022/09/12 06:24:06;;;;;;;7.15;5.90;;;15.30;99.90;;;;;;7387901;19;20154;-79
2022/09/12 06:26:32;;;;;;;7.07;6.15;;;15.50;99.90;;;;;;7386982;19;20181;-81
2022/09/12 06:28:59;;;;;;;10.77;7.50;;;15.70;99.90;;;;;;7390242;19;20146;-79
2022/09/12 06:31:34;;;;;;;9.13;6.88;;;15.70;99.90;;;;;;7388388;19;20143;-82
2022/09/12 06:34:02;;;;;;;7.40;6.30;;;15.90;99.90;;;;;;7389764;19;20145;-81
2022/09/12 06:36:31;;;;;;;10.02;6.88;;;16.10;99.90;;;;;;7388550;19;20588;-80
2022/09/12 06:39:06;;;;;;;10.20;6.70;;;16.20;99.90;;;;;;7389175;19;20138;-79
2022/09/12 06:41:33;;;;;;;9.60;6.78;;;16.00;99.90;;;;;;7390065;19;20595;-84
2022/09/12 06:44:00;;;;;;;8.35;6.90;;;15.70;99.90;;;;;;7387416;19;20139;-80
2022/09/12 06:46:26;;;;;;;8.52;6.75;;;16.00;99.90;;;;;;7392429;19;20627;-81
2022/09/12 06:48:55;;;;;;;11.35;6.55;;;16.20;99.90;;;;;;7395449;19;20151;-80
2022/09/12 06:51:20;;;;;;;10.20;6.75;;;16.30;99.90;;;;;;7400893;19;20158;-81
2022/09/12 06:53:48;;;;;;;8.88;7.07;;;16.30;99.90;;;;;;7395536;19;20251;-80
2022/09/12 06:56:19;;;;;;;9.32;7.03;;;16.40;99.90;;;;;;7396968;19;20141;-79
2022/09/12 06:58:46;;;;;;;9.77;7.75;;;16.40;99.90;;;;;;7397463;19;20171;-80
2022/09/12 07:01:18;;;;;;;11.77;7.55;;;16.30;99.90;;;;;;7395356;19;20165;-82
2022/09/12 07:03:48;;;;;;;8.23;7.00;;;16.40;99.90;;;;;;7396167;19;20552;-80
2022/09/12 07:06:17;;;;;;;10.52;6.93;;;16.40;99.90;;;;;;7397937;19;20147;-79
2022/09/12 07:08:43;;;;;;;10.32;6.28;;;16.50;99.90;;;;;;7400131;19;20226;-79
2022/09/12 07:11:24;;;;;;;8.65;7.70;;;16.50;99.90;;;;;;7398004;19;20150;-79
2022/09/12 07:13:53;;;;;;;7.93;6.40;;;16.50;99.90;;;;;;7397373;19;20467;-79
2022/09/12 07:16:19;;;;;;;10.18;7.47;;;16.40;99.90;;;;;;7397912;19;20134;-78
2022/09/12 07:18:53;;;;;;;10.40;7.00;;;16.50;99.90;;;;;;7398016;19;20154;-79
2022/09/12 07:21:19;;;;;;;8.95;6.55;;;16.60;99.90;;;;;;7398315;19;20138;-79
2022/09/12 07:23:45;;;;;;;8.85;7.18;;;16.60;99.90;;;;;;7394997;19;20161;-79
2022/09/12 07:26:12;;;;;;;8.68;6.78;;;16.60;99.90;;;;;;7395976;19;20146;-78
2022/09/12 07:28:39;;;;;;;12.95;7.20;;;16.70;99.90;;;;;;7397726;19;20158;-80
2022/09/12 07:31:10;;;;;;;10.68;6.40;;;16.80;99.90;;;;;;7395967;19;20230;-79
2022/09/12 07:33:36;;;;;;;8.05;5.88;;;16.90;99.90;;;;;;7392452;19;20778;-81
2022/09/12 07:36:09;;;;;;;10.30;6.38;;;17.00;99.90;;;;;;7396946;19;20147;-80
2022/09/12 07:38:35;;;;;;;8.93;6.28;;;17.10;99.90;;;;;;7398407;19;20145;-80
2022/09/12 07:41:22;;;;;;;7.53;6.03;;;17.10;99.90;;;;;;7395413;19;20142;-78
2022/09/12 07:43:52;;;;;;;7.57;5.88;;;17.20;99.90;;;;;;7394753;19;20146;-77
2022/09/12 07:46:18;;;;;;;7.57;6.38;;;17.20;99.90;;;;;;7401684;19;20147;-85
2022/09/12 07:48:44;;;;;;;7.25;6.07;;;17.40;99.90;;;;;;7400423;19;20155;-79
2022/09/12 07:51:11;;;;;;;9.43;6.20;;;17.40;99.90;;;;;;7395393;19;20992;-80
2022/09/12 07:53:39;;;;;;;8.40;5.30;;;17.50;99.90;;;;;;7392636;19;20146;-80
2022/09/12 07:56:09;;;;;;;8.18;5.85;;;17.60;99.90;;;;;;7394692;19;20154;-81
2022/09/12 07:58:36;;;;;;;9.07;5.55;;;17.80;99.90;;;;;;7392995;19;20599;-82
2022/09/12 08:01:03;;;;;;;8.10;6.03;;;17.90;99.90;;;;;;7394348;19;20139;-81
2022/09/12 08:03:29;;;;;;;7.03;5.55;;;18.00;99.90;;;;;;7391484;19;20160;-80
2022/09/12 08:06:01;;;;;;;9.75;5.70;;;18.10;99.90;;;;;;7395598;19;20150;-80
2022/09/12 08:08:28;;;;;;;8.23;5.95;;;18.20;99.90;;;;;;7393965;19;20150;-81
2022/09/12 08:11:02;;;;;;;9.68;5.28;;;18.40;99.90;;;;;;7395923;19;20139;-80
2022/09/12 08:13:29;;;;;;;5.85;4.47;;;18.70;99.90;;;;;;7402723;19;20206;-78
2022/09/12 08:15:59;;;;;;;8.80;5.43;;;18.90;99.90;;;;;;7402405;19;20278;-80
2022/09/12 08:18:29;;;;;;;8.27;5.72;;;19.10;99.90;;;;;;7392376;19;20143;-79
2022/09/12 08:20:59;;;;;;;5.97;4.60;;;19.30;99.90;;;;;;7393702;19;20468;-79
2022/09/12 08:23:26;;;;;;;9.65;4.72;;;19.30;99.90;;;;;;7390747;19;20150;-79
2022/09/12 08:25:58;;;;;;;9.80;5.13;;;19.40;99.90;;;;;;7391072;19;20189;-80
2022/09/12 08:28:25;;;;;;;7.07;5.18;;;19.40;99.90;;;;;;7391675;19;20632;-81
2022/09/12 08:30:52;;;;;;;6.53;5.20;;;19.40;99.90;;;;;;7393425;19;20147;-79
2022/09/12 08:33:18;;;;;;;5.18;4.50;;;19.50;99.90;;;;;;7395030;19;20139;-80
2022/09/12 08:35:43;;;;;;;10.18;7.13;;;19.70;99.90;;;;;;7393730;19;20154;-80
2022/09/12 08:38:09;;;;;;;5.78;5.18;;;19.70;99.90;;;;;;7390894;19;20127;-82
2022/09/12 08:40:54;;;;;;;6.55;4.85;;;19.90;99.90;;;;;;7392835;19;20162;-80
2022/09/12 08:43:45;;;;;;;5.88;5.00;;;20.00;99.90;;;;;;7391621;19;20165;-81
2022/09/12 08:46:18;;;;;;;6.60;4.38;;;20.00;99.90;;;;;;7391793;19;20158;-81
2022/09/12 08:48:45;;;;;;;7.95;5.03;;;20.10;99.90;;;;;;7392488;19;20146;-79
2022/09/12 08:51:15;;;;;;;6.90;4.47;;;20.00;99.90;;;;;;7393969;19;20142;-79
2022/09/12 08:53:42;;;;;;;8.05;4.72;;;20.00;99.90;;;;;;7392252;19;20162;-79
2022/09/12 08:56:10;;;;;;;6.97;4.07;;;20.10;99.90;;;;;;7393819;19;20142;-78
2022/09/12 08:58:42;;;;;;;6.07;4.30;;;20.10;99.90;;;;;;7391446;19;20135;-79
2022/09/12 09:01:31;;;;;;;7.03;3.83;;;20.20;99.90;;;;;;7392439;19;20158;-80
2022/09/12 09:04:26;;;;;;;5.60;3.90;;;20.30;99.90;;;;;;7391170;19;20564;-78
2022/09/12 09:06:58;;;;;;;4.63;3.85;;;20.30;99.90;;;;;;7390891;19;20153;-80
2022/09/12 09:09:45;;;;;;;4.75;3.75;;;20.40;99.90;;;;;;7386196;19;20134;-79
2022/09/12 09:12:21;;;;;;;5.78;3.20;;;20.40;99.90;;;;;;7392281;19;20145;-80
2022/09/12 09:15:01;;;;;;;4.43;3.20;;;20.40;99.90;;;;;;7398511;19;20130;-79
2022/09/12 09:17:43;;;;;;;3.55;2.78;;;20.60;99.90;;;;;;7392464;19;20226;-78
2022/09/12 09:20:48;;;;;;;3.58;3.25;;;20.70;99.90;;;;;;7389841;19;20159;-80
2022/09/12 09:23:26;;;;;;;3.38;2.83;;;20.70;99.90;;;;;;7388116;19;20161;-81
2022/09/12 09:26:13;;;;;;;3.60;3.08;;;20.80;99.90;;;;;;7390892;19;20162;-81
2022/09/12 09:28:52;;;;;;;7.60;2.78;;;20.80;99.90;;;;;;7388986;19;20579;-79
2022/09/12 09:31:24;;;;;;;6.22;2.75;;;20.80;99.90;;;;;;7391732;19;20177;-80
2022/09/12 09:33:55;;;;;;;4.70;2.40;;;20.80;99.90;;;;;;7390664;19;20142;-80
2022/09/12 09:36:34;;;;;;;4.20;2.47;;;20.90;99.90;;;;;;7389360;19;20173;-81
2022/09/12 09:39:32;;;;;;;2.60;2.22;;;21.00;99.90;;;;;;7391622;19;20167;-78
2022/09/12 09:42:25;;;;;;;3.28;2.20;;;20.90;99.90;;;;;;7398890;19;20138;-79
2022/09/12 09:44:53;;;;;;;2.70;2.47;;;21.20;99.90;;;;;;7390372;19;20230;-80
2022/09/12 09:47:19;;;;;;;4.10;2.97;;;21.30;99.90;;;;;;7390386;19;20169;-80
2022/09/12 09:49:45;;;;;;;4.10;2.42;;;21.40;99.90;;;;;;7389867;19;20145;-80
2022/09/12 09:52:15;;;;;;;4.57;1.80;;;21.60;99.90;;;;;;7392690;19;20131;-81
2022/09/12 09:54:53;;;;;;;3.47;2.03;;;21.60;99.90;;;;;;7391202;19;20154;-78
2022/09/12 09:57:39;;;;;;;2.72;1.70;;;21.60;99.90;;;;;;7388978;19;20138;-82
2022/09/12 10:00:32;;;;;;;2.15;1.65;;;21.70;99.90;;;;;;7390636;19;20137;-79
2022/09/12 10:03:11;;;;;;;1.60;1.50;;;21.90;99.90;;;;;;7388273;19;20131;-80
2022/09/12 10:05:50;;;;;;;1.67;1.50;;;21.80;99.90;;;;;;7391217;19;20130;-81
2022/09/12 10:08:27;;;;;;;1.60;1.45;;;21.90;99.90;;;;;;7389101;19;20153;-79
2022/09/12 10:11:05;;;;;;;2.58;2.10;;;22.00;99.90;;;;;;7391904;19;20130;-81
2022/09/12 10:13:52;;;;;;;1.52;1.42;;;22.10;99.90;;;;;;7391147;19;20610;-79
2022/09/12 10:16:51;;;;;;;1.33;1.23;;;22.10;99.90;;;;;;7393459;19;20897;-80
2022/09/12 10:19:23;;;;;;;2.60;1.55;;;22.20;99.90;;;;;;7386163;19;20162;-78
2022/09/12 10:21:54;;;;;;;2.40;1.77;;;22.40;99.90;;;;;;7393692;19;20153;-79
2022/09/12 10:24:40;;;;;;;1.70;1.60;;;22.40;99.90;;;;;;7393744;19;20554;-78
2022/09/12 10:27:17;;;;;;;1.60;1.50;;;22.40;99.90;;;;;;7399779;19;20138;-79
2022/09/12 10:30:03;;;;;;;5.00;4.32;;;22.50;99.90;;;;;;7396006;19;20135;-79
2022/09/12 10:32:37;;;;;;;1.63;1.38;;;22.50;99.90;;;;;;7396090;19;20138;-78
2022/09/12 10:35:08;;;;;;;3.08;1.98;;;22.50;99.90;;;;;;7397858;19;20139;-78
2022/09/12 10:37:38;;;;;;;1.95;1.50;;;22.70;99.90;;;;;;7395729;19;20143;-80
2022/09/12 10:40:25;;;;;;;1.52;1.42;;;22.70;99.90;;;;;;7397753;19;20161;-79
2022/09/12 10:42:56;;;;;;;1.38;1.27;;;22.70;99.90;;;;;;7395804;19;20131;-80
2022/09/12 10:45:30;;;;;;;3.72;1.60;;;22.80;99.90;;;;;;7397059;19;20143;-80
2022/09/12 10:47:59;;;;;;;1.40;1.30;;;22.80;99.90;;;;;;7397978;19;20484;-78
2022/09/12 10:50:42;;;;;;;2.00;1.50;;;22.90;99.90;;;;;;7399030;19;20139;-80
2022/09/12 10:53:17;;;;;;;1.48;1.38;;;23.00;99.90;;;;;;7398062;19;20142;-78
2022/09/12 10:55:53;;;;;;;1.27;1.17;;;23.00;99.90;;;;;;7395810;19;20157;-79
2022/09/12 10:58:45;;;;;;;1.55;1.33;;;23.00;99.90;;;;;;7393976;19;20171;-79
2022/09/12 11:01:31;;;;;;;1.30;1.20;;;23.00;99.90;;;;;;7395883;19;20514;-79
2022/09/12 11:03:57;;;;;;;1.48;1.30;;;23.00;99.90;;;;;;7394439;19;20142;-77
2022/09/12 11:06:33;;;;;;;1.25;1.00;;;23.20;99.90;;;;;;7393532;19;20147;-79
2022/09/12 11:09:12;;;;;;;2.42;2.22;;;23.20;99.90;;;;;;7394880;19;20139;-78
2022/09/12 11:12:01;;;;;;;1.55;1.23;;;23.30;99.90;;;;;;7394692;19;20138;-78
2022/09/12 11:14:35;;;;;;;3.85;3.30;;;23.40;99.90;;;;;;7395465;19;20173;-79
2022/09/12 11:17:18;;;;;;;1.60;1.30;;;23.30;99.90;;;;;;7395852;19;20507;-78
2022/09/12 11:20:03;;;;;;;1.70;1.60;;;23.30;99.90;;;;;;7394939;19;20150;-78
2022/09/12 11:22:47;;;;;;;1.40;1.30;;;23.40;99.90;;;;;;7391797;19;20158;-79
2022/09/12 11:25:34;;;;;;;2.03;1.17;;;23.50;99.90;;;;;;7388978;19;20648;-78
2022/09/12 11:28:14;;;;;;;4.05;3.05;;;23.60;99.90;;;;;;7396005;19;20138;-79
2022/09/12 11:31:06;;;;;;;2.08;1.67;;;23.70;99.90;;;;;;7393941;19;20162;-79
2022/09/12 11:33:48;;;;;;;1.40;1.13;;;23.80;99.90;;;;;;7389287;19;20599;-79
2022/09/12 11:36:27;;;;;;;1.00;0.90;;;23.90;99.90;;;;;;7392842;19;20607;-79
2022/09/12 11:39:02;;;;;;;1.35;1.17;;;23.90;99.90;;;;;;7394138;19;20141;-79
2022/09/12 11:41:39;;;;;;;2.38;0.90;;;24.00;99.00;;;;;;7393074;19;20150;-81
2022/09/12 11:44:21;;;;;;;1.15;1.05;;;24.10;98.50;;;;;;7392691;19;20579;-79
2022/09/12 11:46:48;;;;;;;0.70;0.70;;;24.20;98.60;;;;;;7394142;19;20495;-82
2022/09/12 11:49:26;;;;;;;0.77;0.77;;;24.40;97.30;;;;;;7392480;19;20898;-80
2022/09/12 11:52:19;;;;;;;1.15;1.05;;;24.10;97.70;;;;;;7396316;19;20138;-80
2022/09/12 11:55:00;;;;;;;1.42;0.90;;;23.90;98.40;;;;;;7392784;19;20622;-76
2022/09/12 11:57:48;;;;;;;1.00;0.90;;;24.00;97.90;;;;;;7394881;19;20142;-80
2022/09/12 12:00:40;;;;;;;2.25;1.13;;;24.00;97.40;;;;;;7392151;19;20147;-80
2022/09/12 12:03:06;;;;;;;1.38;1.23;;;23.90;97.60;;;;;;7396961;19;20590;-79
2022/09/12 12:05:53;;;;;;;1.63;1.05;;;23.90;97.40;;;;;;7401006;19;20138;-79
2022/09/12 12:08:22;;;;;;;0.63;0.60;;;24.10;96.80;;;;;;7400071;19;20180;-79
2022/09/12 12:10:55;;;;;;;0.70;0.70;;;24.20;95.90;;;;;;7394626;19;20146;-80
2022/09/12 12:13:50;;;;;;;0.98;0.82;;;24.30;95.20;;;;;;7394158;19;20164;-80
2022/09/12 12:16:37;;;;;;;0.80;0.80;;;24.40;95.60;;;;;;7395897;19;20134;-79
2022/09/12 12:19:14;;;;;;;0.63;0.63;;;24.40;95.30;;;;;;7391674;19;20495;-80
2022/09/12 12:21:46;;;;;;;1.23;0.80;;;24.50;95.00;;;;;;7391866;19;20150;-79
2022/09/12 12:24:27;;;;;;;1.35;0.80;;;24.60;93.80;;;;;;7392800;19;20154;-78
2022/09/12 12:27:22;;;;;;;1.27;0.80;;;24.60;94.20;;;;;;7393882;19;20130;-80
2022/09/12 12:29:47;;;;;;;1.13;0.98;;;24.60;94.60;;;;;;7392613;19;20138;-80
2022/09/12 12:32:16;;;;;;;1.85;0.80;;;24.60;94.40;;;;;;7392377;19;20799;-80
2022/09/12 12:34:46;;;;;;;0.82;0.82;;;24.60;94.10;;;;;;7393721;19;20142;-79
2022/09/12 12:37:18;;;;;;;0.90;0.52;;;24.60;94.00;;;;;;7392654;19;20157;-80
2022/09/12 12:39:59;;;;;;;0.80;0.73;;;24.70;93.70;;;;;;7390141;19;20135;-81
2022/09/12 12:42:34;;;;;;;2.15;0.80;;;24.60;94.10;;;;;;7392875;19;20202;-81
2022/09/12 12:45:16;;;;;;;1.17;1.00;;;24.70;93.90;;;;;;7391719;19;20140;-80
2022/09/12 12:47:46;;;;;;;1.90;1.67;;;24.80;93.50;;;;;;7392974;19;20138;-81
2022/09/12 12:50:15;;;;;;;1.10;1.00;;;24.90;93.00;;;;;;7392010;19;20154;-80
2022/09/12 12:53:09;;;;;;;3.42;2.17;;;24.90;92.90;;;;;;7392857;19;20143;-82
2022/09/12 12:55:47;;;;;;;1.10;0.90;;;24.80;92.80;;;;;;7390895;19;20161;-82
2022/09/12 12:58:41;;;;;;;1.58;1.40;;;24.80;92.80;;;;;;7396845;19;20504;-80
2022/09/12 13:01:15;;;;;;;0.63;0.63;;;24.70;93.20;;;;;;7395666;19;20468;-78
2022/09/12 13:03:52;;;;;;;1.20;0.85;;;24.70;93.00;;;;;;7393290;19;20139;-79
2022/09/12 13:06:32;;;;;;;1.40;0.60;;;24.60;92.90;;;;;;7396043;19;20152;-81
2022/09/12 13:09:25;;;;;;;1.10;0.85;;;24.70;93.50;;;;;;7395079;19;20153;-81
2022/09/12 13:12:00;;;;;;;0.80;0.80;;;24.70;93.20;;;;;;7396613;19;20134;-81
2022/09/12 13:15:00;;;;;;;0.90;0.70;;;24.90;91.90;;;;;;7394271;19;20156;-81
2022/09/12 13:17:34;;;;;;;0.70;0.70;;;24.70;92.60;;;;;;7393766;19;20154;-82
2022/09/12 13:20:13;;;;;;;0.70;0.70;;;24.70;92.60;;;;;;7392472;19;20138;-79
2022/09/12 13:22:47;;;;;;;1.20;0.95;;;24.60;92.60;;;;;;7397859;19;20134;-82